createdAt,value
2023-02-19T00:01:28.828Z,95504.50
2023-02-19T00:04:04.245Z,95494.56
2023-02-19T00:06:33.383Z,95493.78
2023-02-19T00:09:00.536Z,95497.97
2023-02-19T00:11:31.099Z,95484.16
2023-02-19T00:13:59.778Z,95489.69
2023-02-19T00:16:29.558Z,95493.25
2023-02-19T00:18:57.730Z,95483.03
2023-02-19T00:21:25.105Z,95481.97
2023-02-19T00:23:54.082Z,95476.81
2023-02-19T00:26:21.535Z,95483.72
2023-02-19T00:28:50.149Z,95476.13
2023-02-19T00:31:18.988Z,95472.31
2023-02-19T00:33:47.223Z,95477.09
2023-02-19T00:36:14.815Z,95474.09
2023-02-19T00:38:42.981Z,95477.63
2023-02-19T00:41:20.163Z,95470.13
2023-02-19T00:43:59.157Z,95466.09
2023-02-19T00:46:28.900Z,95470.97
2023-02-19T00:48:57.044Z,95467.72
2023-02-19T00:51:26.864Z,95457.13
2023-02-19T00:53:53.583Z,95453.19
2023-02-19T00:56:20.898Z,95464.56
2023-02-19T00:58:47.979Z,95447.09
2023-02-19T01:01:15.996Z,95438.81
2023-02-19T01:03:42.690Z,95445.59
2023-02-19T01:06:11.514Z,95441.00
2023-02-19T01:08:38.122Z,95446.16
2023-02-19T01:11:06.378Z,95445.47
2023-02-19T01:13:34.058Z,95464.72
2023-02-19T01:16:04.575Z,95437.97
2023-02-19T01:18:32.346Z,95439.19
2023-02-19T01:20:59.289Z,95434.47
2023-02-19T01:23:26.407Z,95434.47
2023-02-19T01:25:53.357Z,95439.22
2023-02-19T01:28:20.125Z,95443.00
2023-02-19T01:30:46.812Z,95440.84
2023-02-19T01:33:13.946Z,95431.34
2023-02-19T01:35:40.636Z,95424.03
2023-02-19T01:38:08.447Z,95430.25
2023-02-19T01:40:35.669Z,95430.25
2023-02-19T01:43:03.684Z,95422.66
2023-02-19T01:45:33.114Z,95426.31
2023-02-19T01:48:06.938Z,95430.53
2023-02-19T01:50:39.082Z,95428.34
2023-02-19T01:53:08.518Z,95434.63
2023-02-19T01:55:35.952Z,95427.97
2023-02-19T01:58:04.238Z,95421.59
2023-02-19T02:00:33.196Z,95417.78
2023-02-19T02:03:00.945Z,95420.38
2023-02-19T02:06:02.433Z,95411.13
2023-02-19T02:08:50.084Z,95413.31
2023-02-19T02:11:20.936Z,95412.75
2023-02-19T02:13:48.819Z,95417.25
2023-02-19T02:16:23.353Z,95410.75
2023-02-19T02:18:56.292Z,95410.31
2023-02-19T02:21:28.822Z,95404.47
2023-02-19T02:24:04.606Z,95409.38
2023-02-19T02:26:37.772Z,95407.47
2023-02-19T02:29:19.316Z,95394.16
2023-02-19T02:31:57.048Z,95385.63
2023-02-19T02:34:33.738Z,95371.38
2023-02-19T02:37:00.620Z,95375.19
2023-02-19T02:39:30.493Z,95367.16
2023-02-19T02:42:18.275Z,95368.66
2023-02-19T02:45:13.967Z,95375.56
2023-02-19T02:47:53.289Z,95363.38
2023-02-19T02:50:26.331Z,95358.66
2023-02-19T02:53:18.280Z,95365.13
2023-02-19T02:55:48.058Z,95353.88
2023-02-19T02:58:16.930Z,95340.56
2023-02-19T03:01:08.493Z,95341.41
2023-02-19T03:03:38.471Z,95338.84
2023-02-19T03:06:08.707Z,95342.78
2023-02-19T03:08:46.129Z,95333.00
2023-02-19T03:11:32.962Z,95340.47
2023-02-19T03:14:28.031Z,95342.63
2023-02-19T03:17:25.190Z,95351.59
2023-02-19T03:19:56.208Z,95347.78
2023-02-19T03:22:27.943Z,95352.50
2023-02-19T03:25:19.074Z,95349.47
2023-02-19T03:27:49.434Z,95348.38
2023-02-19T03:30:22.394Z,95351.06
2023-02-19T03:32:54.718Z,95353.06
2023-02-19T03:35:26.241Z,95361.00
2023-02-19T03:38:06.809Z,95369.66
2023-02-19T03:41:03.616Z,95377.31
2023-02-19T03:43:54.390Z,95370.25
2023-02-19T03:46:23.362Z,95364.00
2023-02-19T03:48:53.298Z,95368.75
2023-02-19T03:52:07.239Z,95366.31
2023-02-19T03:55:01.136Z,95367.31
2023-02-19T03:57:55.720Z,95375.03
2023-02-19T04:00:22.793Z,95372.34
2023-02-19T04:02:56.469Z,95368.53
2023-02-19T04:05:27.418Z,95360.34
2023-02-19T04:07:58.360Z,95362.91
2023-02-19T04:10:32.202Z,95371.59
2023-02-19T04:13:07.665Z,95364.56
2023-02-19T04:15:36.210Z,95361.44
2023-02-19T04:18:07.740Z,95360.28
2023-02-19T04:20:39.365Z,95347.75
2023-02-19T04:23:06.527Z,95324.34
2023-02-19T04:25:34.467Z,95316.72
2023-02-19T04:28:02.529Z,95311.13
2023-02-19T04:30:29.346Z,95342.28
2023-02-19T04:32:56.096Z,95328.03
2023-02-19T04:35:22.637Z,95329.69
2023-02-19T04:37:49.420Z,95333.94
2023-02-19T04:40:16.181Z,95335.28
2023-02-19T04:42:42.985Z,95338.97
2023-02-19T04:45:09.568Z,95348.75
2023-02-19T04:47:36.128Z,95345.75
2023-02-19T04:50:03.164Z,95357.34
2023-02-19T04:52:30.093Z,95359.69
2023-02-19T04:54:56.847Z,95359.91
2023-02-19T04:57:23.710Z,95360.91
2023-02-19T04:59:50.398Z,95364.06
2023-02-19T05:02:16.945Z,95360.72
2023-02-19T05:04:43.756Z,95368.03
2023-02-19T05:07:10.447Z,95360.94
2023-02-19T05:09:37.162Z,95365.16
2023-02-19T05:12:04.020Z,95356.41
2023-02-19T05:14:30.819Z,95367.38
2023-02-19T05:16:57.402Z,95362.53
2023-02-19T05:19:23.898Z,95348.59
2023-02-19T05:21:50.718Z,95353.13
2023-02-19T05:24:17.483Z,95365.75
2023-02-19T05:26:45.424Z,95352.63
2023-02-19T05:29:12.225Z,95368.53
2023-02-19T05:31:39.012Z,95374.63
2023-02-19T05:34:05.553Z,95375.47
2023-02-19T05:36:32.499Z,95376.28
2023-02-19T05:38:59.221Z,95377.03
2023-02-19T05:41:28.798Z,95372.19
2023-02-19T05:43:57.350Z,95375.13
2023-02-19T05:46:27.195Z,95375.91
2023-02-19T05:48:54.150Z,95382.22
2023-02-19T05:51:23.930Z,95390.53
2023-02-19T05:53:50.923Z,95390.13
2023-02-19T05:56:34.665Z,95391.31
2023-02-19T05:59:06.506Z,95380.59
2023-02-19T06:01:33.715Z,95391.94
2023-02-19T06:04:01.164Z,95398.09
2023-02-19T06:06:28.068Z,95405.56
2023-02-19T06:08:55.164Z,95405.06
2023-02-19T06:11:21.782Z,95413.59
2023-02-19T06:13:50.218Z,95425.72
2023-02-19T06:16:18.108Z,95422.47
2023-02-19T06:18:45.641Z,95414.69
2023-02-19T06:21:13.493Z,95424.66
2023-02-19T06:23:41.261Z,95430.31
2023-02-19T06:26:18.864Z,95425.53
2023-02-19T06:28:47.267Z,95442.00
2023-02-19T06:31:14.774Z,95445.41
2023-02-19T06:33:43.467Z,95440.25
2023-02-19T06:36:15.946Z,95456.66
2023-02-19T06:38:42.913Z,95458.53
2023-02-19T06:41:10.868Z,95462.28
2023-02-19T06:43:37.689Z,95468.69
2023-02-19T06:46:05.971Z,95457.53
2023-02-19T06:48:33.734Z,95460.28
2023-02-19T06:51:00.559Z,95459.28
2023-02-19T06:53:27.866Z,95470.91
2023-02-19T06:55:57.359Z,95477.88
2023-02-19T06:58:24.277Z,95469.81
2023-02-19T07:00:51.119Z,95469.63
2023-02-19T07:03:17.854Z,95465.97
2023-02-19T07:05:44.764Z,95477.22
2023-02-19T07:08:11.556Z,95472.44
2023-02-19T07:10:38.299Z,95475.47
2023-02-19T07:13:05.105Z,95472.69
2023-02-19T07:15:31.768Z,95479.41
2023-02-19T07:17:59.732Z,95486.97
2023-02-19T07:20:26.458Z,95486.75
2023-02-19T07:22:54.276Z,95486.25
2023-02-19T07:25:21.739Z,95497.72
2023-02-19T07:27:48.383Z,95498.16
2023-02-19T07:30:15.117Z,95495.84
2023-02-19T07:32:42.613Z,95505.53
2023-02-19T07:35:09.390Z,95505.59
2023-02-19T07:37:36.083Z,95517.91
2023-02-19T07:40:03.103Z,95517.78
2023-02-19T07:42:29.764Z,95524.50
2023-02-19T07:44:57.257Z,95525.13
2023-02-19T07:47:25.043Z,95532.22
2023-02-19T07:49:51.808Z,95532.03
2023-02-19T07:52:18.588Z,95535.59
2023-02-19T07:54:45.551Z,95540.13
2023-02-19T07:57:12.206Z,95529.72
2023-02-19T07:59:38.730Z,95537.59
2023-02-19T08:02:34.015Z,95538.00
2023-02-19T08:05:00.714Z,95537.94
2023-02-19T08:07:35.746Z,95548.09
2023-02-19T08:10:22.147Z,95548.53
2023-02-19T08:13:18.397Z,95554.00
2023-02-19T08:15:56.304Z,95546.91
2023-02-19T08:18:26.729Z,95545.56
2023-02-19T08:20:54.739Z,95546.06
2023-02-19T08:23:21.731Z,95551.50
2023-02-19T08:25:50.496Z,95551.16
2023-02-19T08:28:18.304Z,95557.69
2023-02-19T08:30:47.051Z,95551.63
2023-02-19T08:33:17.879Z,95548.47
2023-02-19T08:35:45.310Z,95551.09
2023-02-19T08:38:13.691Z,95546.16
2023-02-19T08:40:40.866Z,95554.88
2023-02-19T08:43:10.533Z,95564.50
2023-02-19T08:45:38.416Z,95559.91
2023-02-19T08:48:05.612Z,95554.28
2023-02-19T08:50:32.597Z,95566.66
2023-02-19T08:53:00.365Z,95572.31
2023-02-19T08:55:27.962Z,95574.06
2023-02-19T08:57:55.123Z,95569.63
2023-02-19T09:00:21.801Z,95569.09
2023-02-19T09:02:49.389Z,95590.31
2023-02-19T09:05:17.148Z,95597.16
2023-02-19T09:07:44.234Z,95603.69
2023-02-19T09:10:12.997Z,95595.91
2023-02-19T09:12:40.664Z,95603.63
2023-02-19T09:15:07.744Z,95603.78
2023-02-19T09:17:34.368Z,95614.06
2023-02-19T09:20:01.127Z,95608.88
2023-02-19T09:22:27.992Z,95619.72
2023-02-19T09:24:54.544Z,95615.88
2023-02-19T09:27:21.211Z,95628.66
2023-02-19T09:29:47.910Z,95631.00
2023-02-19T09:32:14.792Z,95638.81
2023-02-19T09:34:41.790Z,95626.41
2023-02-19T09:37:08.694Z,95627.28
2023-02-19T09:39:35.945Z,95640.34
2023-02-19T09:42:20.016Z,95640.47
2023-02-19T09:44:52.232Z,95646.31
2023-02-19T09:47:21.835Z,95644.91
2023-02-19T09:49:52.596Z,95652.97
2023-02-19T09:52:29.204Z,95638.97
2023-02-19T09:54:59.393Z,95659.13
2023-02-19T09:57:29.764Z,95661.78
2023-02-19T10:00:23.044Z,95663.75
2023-02-19T10:03:14.773Z,95664.59
2023-02-19T10:05:42.364Z,95662.59
2023-02-19T10:08:15.522Z,95656.06
2023-02-19T10:10:44.358Z,95661.69
2023-02-19T10:13:30.975Z,95659.94
2023-02-19T10:16:00.772Z,95668.78
2023-02-19T10:18:32.270Z,95669.31
2023-02-19T10:20:58.960Z,95670.69
2023-02-19T10:23:26.072Z,95669.91
2023-02-19T10:26:00.706Z,95675.97
2023-02-19T10:28:34.379Z,95674.03
2023-02-19T10:31:03.861Z,95678.47
2023-02-19T10:33:30.780Z,95672.00
2023-02-19T10:36:05.161Z,95681.31
2023-02-19T10:38:39.013Z,95681.97
2023-02-19T10:41:13.481Z,95687.53
2023-02-19T10:43:50.217Z,95682.19
2023-02-19T10:46:21.518Z,95679.13
2023-02-19T10:48:54.864Z,95680.69
2023-02-19T10:51:30.535Z,95683.59
2023-02-19T10:54:24.177Z,95681.31
2023-02-19T10:56:50.950Z,95678.72
2023-02-19T10:59:28.590Z,95686.03
2023-02-19T11:02:03.634Z,95683.25
2023-02-19T11:04:35.332Z,95681.00
2023-02-19T11:07:16.590Z,95665.00
2023-02-19T11:09:45.467Z,95660.53
2023-02-19T11:12:14.409Z,95643.38
2023-02-19T11:14:45.299Z,95655.06
2023-02-19T11:17:30.035Z,95651.28
2023-02-19T11:20:17.763Z,95663.28
2023-02-19T11:22:47.028Z,95657.22
2023-02-19T11:25:14.571Z,95660.53
2023-02-19T11:28:08.397Z,95661.47
2023-02-19T11:30:43.756Z,95662.59
2023-02-19T11:33:24.526Z,95666.47
2023-02-19T11:35:57.950Z,95650.03
2023-02-19T11:38:25.655Z,95645.72
2023-02-19T11:40:59.700Z,95650.53
2023-02-19T11:43:53.540Z,95640.47
2023-02-19T11:46:30.608Z,95635.94
2023-02-19T11:49:15.696Z,95637.41
2023-02-19T11:52:07.424Z,95642.06
2023-02-19T11:55:01.293Z,95645.81
2023-02-19T11:57:48.076Z,95645.38
2023-02-19T12:00:19.547Z,95636.13
2023-02-19T12:02:57.798Z,95633.41
2023-02-19T12:05:43.160Z,95636.75
2023-02-19T12:08:15.809Z,95630.19
2023-02-19T12:11:09.184Z,95634.66
2023-02-19T12:13:35.983Z,95638.19
2023-02-19T12:16:20.755Z,95636.38
2023-02-19T12:19:48.121Z,95638.00
2023-02-19T12:22:26.605Z,95635.28
2023-02-19T12:25:12.057Z,95646.03
2023-02-19T12:28:00.446Z,95638.97
2023-02-19T12:30:50.586Z,95644.41
2023-02-19T12:33:21.718Z,95654.47
2023-02-19T12:36:03.921Z,95654.59
2023-02-19T12:38:36.232Z,95658.94
2023-02-19T12:41:43.469Z,95669.66
2023-02-19T12:44:16.758Z,95671.03
2023-02-19T12:46:58.623Z,95670.22
2023-02-19T12:49:39.364Z,95668.03
2023-02-19T12:52:26.691Z,95670.50
2023-02-19T12:55:17.854Z,95686.63
2023-02-19T12:57:45.000Z,95686.03
2023-02-19T13:00:33.789Z,95687.44
2023-02-19T13:03:09.484Z,95687.00
2023-02-19T13:05:45.275Z,95687.78
2023-02-19T13:08:18.988Z,95689.97
2023-02-19T13:11:18.020Z,95689.97
2023-02-19T13:14:03.139Z,95681.75
2023-02-19T13:16:33.542Z,95685.47
2023-02-19T13:19:02.099Z,95687.84
2023-02-19T13:21:55.970Z,95700.72
2023-02-19T13:24:46.975Z,95694.06
2023-02-19T13:27:28.198Z,95708.13
2023-02-19T13:29:54.931Z,95720.47
2023-02-19T13:32:21.513Z,95708.28
2023-02-19T13:34:51.064Z,95707.25
2023-02-19T13:37:18.532Z,95704.47
2023-02-19T13:39:53.665Z,95695.44
2023-02-19T13:42:31.382Z,95700.69
2023-02-19T13:44:59.127Z,95691.78
2023-02-19T13:48:13.891Z,95695.69
2023-02-19T13:50:41.124Z,95695.06
2023-02-19T13:53:38.850Z,95696.19
2023-02-19T13:56:34.404Z,95709.19
2023-02-19T13:59:35.313Z,95711.84
2023-02-19T14:02:02.220Z,95701.56
2023-02-19T14:04:31.988Z,95694.94
2023-02-19T14:07:04.695Z,95680.88
2023-02-19T14:09:34.616Z,95683.53
2023-02-19T14:12:09.534Z,95690.84
2023-02-19T14:14:47.081Z,95690.09
2023-02-19T14:17:33.308Z,95705.31
2023-02-19T14:20:09.821Z,95723.44
2023-02-19T14:22:57.809Z,95722.44
2023-02-19T14:25:33.518Z,95719.72
2023-02-19T14:28:25.517Z,95713.41
2023-02-19T14:30:55.011Z,95703.81
2023-02-19T14:33:35.679Z,95699.59
2023-02-19T14:36:26.049Z,95702.16
2023-02-19T14:38:59.956Z,95693.09
2023-02-19T14:41:30.776Z,95704.66
2023-02-19T14:44:00.566Z,95713.19
2023-02-19T14:46:49.369Z,95722.09
2023-02-19T14:49:19.853Z,95713.00
2023-02-19T14:51:51.546Z,95700.06
2023-02-19T14:54:25.684Z,95690.03
2023-02-19T14:56:53.181Z,95671.19
2023-02-19T14:59:19.883Z,95682.94
2023-02-19T15:01:53.101Z,95685.94
2023-02-19T15:04:23.107Z,95699.25
2023-02-19T15:06:52.977Z,95708.94
2023-02-19T15:09:22.087Z,95713.75
2023-02-19T15:11:51.187Z,95712.72
2023-02-19T15:14:24.416Z,95716.09
2023-02-19T15:16:58.329Z,95715.34
2023-02-19T15:19:25.493Z,95731.88
2023-02-19T15:21:52.375Z,95727.56
2023-02-19T15:24:19.653Z,95735.59
2023-02-19T15:26:55.273Z,95737.00
2023-02-19T15:29:27.491Z,95738.75
2023-02-19T15:31:59.720Z,95743.47
2023-02-19T15:34:29.214Z,95748.81
2023-02-19T15:37:00.545Z,95752.44
2023-02-19T15:39:48.205Z,95758.53
2023-02-19T15:42:38.079Z,95752.00
2023-02-19T15:45:15.991Z,95754.88
2023-02-19T15:47:50.599Z,95744.59
2023-02-19T15:50:27.268Z,95756.81
2023-02-19T15:53:26.302Z,95753.63
2023-02-19T15:56:04.609Z,95753.97
2023-02-19T15:58:47.098Z,95744.63
2023-02-19T16:01:37.820Z,95740.75
2023-02-19T16:04:11.393Z,95730.94
2023-02-19T16:06:59.761Z,95732.34
2023-02-19T16:09:40.004Z,95738.34
2023-02-19T16:12:24.562Z,95741.00
2023-02-19T16:14:51.152Z,95748.72
2023-02-19T16:17:25.114Z,95754.25
2023-02-19T16:19:57.458Z,95752.81
2023-02-19T16:22:27.208Z,95755.97
2023-02-19T16:24:58.448Z,95757.25
2023-02-19T16:27:37.603Z,95763.56
2023-02-19T16:30:25.429Z,95770.34
2023-02-19T16:33:33.053Z,95775.03
2023-02-19T16:36:34.264Z,95783.69
2023-02-19T16:39:07.090Z,95776.88
2023-02-19T16:41:34.200Z,95780.16
2023-02-19T16:44:06.430Z,95778.19
2023-02-19T16:46:33.206Z,95772.09
2023-02-19T16:49:00.037Z,95783.94
2023-02-19T16:51:27.933Z,95782.41
2023-02-19T16:53:54.827Z,95787.63
2023-02-19T16:56:23.055Z,95790.91
2023-02-19T16:58:50.330Z,95805.78
2023-02-19T17:01:18.147Z,95812.75
2023-02-19T17:03:47.046Z,95819.22
2023-02-19T17:06:15.516Z,95826.69
2023-02-19T17:08:44.137Z,95822.00
2023-02-19T17:11:14.289Z,95835.22
2023-02-19T17:13:42.346Z,95837.78
2023-02-19T17:16:17.768Z,95846.41
2023-02-19T17:18:44.536Z,95841.41
2023-02-19T17:21:29.182Z,95836.97
2023-02-19T17:23:59.268Z,95832.06
2023-02-19T17:26:28.574Z,95836.13
2023-02-19T17:29:04.324Z,95843.97
2023-02-19T17:31:31.227Z,95829.69
2023-02-19T17:33:59.099Z,95841.28
2023-02-19T17:36:32.148Z,95850.66
2023-02-19T17:39:00.541Z,95862.53
2023-02-19T17:41:31.355Z,95867.09
2023-02-19T17:44:03.961Z,95875.56
2023-02-19T17:46:30.666Z,95869.16
2023-02-19T17:48:57.224Z,95870.13
2023-02-19T17:51:23.919Z,95874.78
2023-02-19T17:53:50.450Z,95873.47
2023-02-19T17:56:19.993Z,95883.97
2023-02-19T17:58:47.314Z,95888.81
2023-02-19T18:01:15.111Z,95895.34
2023-02-19T18:03:42.073Z,95892.91
2023-02-19T18:06:08.913Z,95901.13
2023-02-19T18:08:35.952Z,95901.91
2023-02-19T18:11:03.106Z,95911.47
2023-02-19T18:13:30.275Z,95904.81
2023-02-19T18:15:57.032Z,95912.38
2023-02-19T18:18:23.838Z,95924.06
2023-02-19T18:20:50.565Z,95916.53
2023-02-19T18:23:17.224Z,95925.63
2023-02-19T18:25:43.873Z,95928.47
2023-02-19T18:28:10.995Z,95928.03
2023-02-19T18:30:37.701Z,95919.63
2023-02-19T18:33:05.310Z,95926.13
2023-02-19T18:35:34.078Z,95926.00
2023-02-19T18:38:01.692Z,95929.66
2023-02-19T18:40:28.860Z,95933.19
2023-02-19T18:42:55.961Z,95937.97
2023-02-19T18:45:22.725Z,95940.94
2023-02-19T18:47:49.967Z,95941.75
2023-02-19T18:50:18.175Z,95951.41
2023-02-19T18:52:45.195Z,95954.44
2023-02-19T18:55:12.114Z,95954.03
2023-02-19T18:57:38.930Z,95946.25
2023-02-19T19:00:07.538Z,95954.81
2023-02-19T19:02:48.344Z,95956.81
2023-02-19T19:05:21.258Z,95955.63
2023-02-19T19:07:49.071Z,95961.97
2023-02-19T19:10:15.993Z,95970.44
2023-02-19T19:12:42.505Z,95968.09
2023-02-19T19:15:09.592Z,95967.19
2023-02-19T19:17:36.249Z,95968.00
2023-02-19T19:20:03.361Z,95965.78
2023-02-19T19:22:30.154Z,95964.28
2023-02-19T19:24:59.513Z,95964.00
2023-02-19T19:27:27.419Z,95954.69
2023-02-19T19:29:54.156Z,95963.22
2023-02-19T19:32:20.801Z,95963.09
2023-02-19T19:34:47.764Z,95966.25
2023-02-19T19:37:14.497Z,95966.63
2023-02-19T19:39:43.270Z,95972.59
2023-02-19T19:42:10.435Z,95976.72
2023-02-19T19:44:37.131Z,95966.38
2023-02-19T19:47:04.261Z,95964.34
2023-02-19T19:49:31.211Z,95970.03
2023-02-19T19:52:01.114Z,95972.06
2023-02-19T19:54:28.731Z,95972.50
2023-02-19T19:56:55.694Z,95957.91
2023-02-19T19:59:23.340Z,95964.59
2023-02-19T20:01:57.002Z,95964.88
2023-02-19T20:04:25.427Z,95983.47
2023-02-19T20:06:52.366Z,95976.63
2023-02-19T20:09:20.049Z,95971.06
2023-02-19T20:11:51.490Z,95967.81
2023-02-19T20:14:20.181Z,95961.69
2023-02-19T20:16:47.526Z,95962.94
2023-02-19T20:19:15.464Z,95969.13
2023-02-19T20:21:52.037Z,95975.00
2023-02-19T20:24:24.419Z,95984.34
2023-02-19T20:26:53.627Z,95982.59
2023-02-19T20:29:20.420Z,95996.19
2023-02-19T20:31:51.363Z,95987.34
2023-02-19T20:34:18.306Z,95977.22
2023-02-19T20:36:47.016Z,95980.06
2023-02-19T20:39:15.099Z,95984.38
2023-02-19T20:41:48.230Z,95980.13
2023-02-19T20:44:15.893Z,95981.31
2023-02-19T20:46:45.270Z,95987.22
2023-02-19T20:49:13.256Z,95984.44
2023-02-19T20:51:47.562Z,95973.59
2023-02-19T20:54:16.161Z,95979.75
2023-02-19T20:56:54.155Z,95968.84
2023-02-19T20:59:23.363Z,95974.25
2023-02-19T21:01:50.646Z,95977.53
2023-02-19T21:04:20.216Z,95986.78
2023-02-19T21:06:46.770Z,95976.09
2023-02-19T21:09:13.592Z,95978.63
2023-02-19T21:11:40.410Z,95993.00
2023-02-19T21:14:07.141Z,95984.19
2023-02-19T21:16:34.182Z,95992.34
2023-02-19T21:19:01.061Z,95992.88
2023-02-19T21:21:30.184Z,95992.34
2023-02-19T21:23:59.372Z,95985.66
2023-02-19T21:26:34.093Z,95986.50
2023-02-19T21:29:00.899Z,95991.88
2023-02-19T21:31:39.673Z,95995.78
2023-02-19T21:34:08.288Z,96002.56
2023-02-19T21:36:35.026Z,96008.41
2023-02-19T21:39:02.391Z,96013.75
2023-02-19T21:41:29.238Z,96006.47
2023-02-19T21:43:56.223Z,95993.97
2023-02-19T21:46:24.849Z,95983.03
2023-02-19T21:48:53.626Z,95984.66
2023-02-19T21:51:21.928Z,95978.81
2023-02-19T21:53:48.753Z,95981.22
2023-02-19T21:56:26.953Z,95984.31
2023-02-19T21:58:54.006Z,95985.09
2023-02-19T22:01:21.411Z,95984.34
2023-02-19T22:03:48.181Z,95987.97
2023-02-19T22:06:15.992Z,95993.44
2023-02-19T22:08:43.426Z,95981.13
2023-02-19T22:11:10.347Z,95983.88
2023-02-19T22:13:37.137Z,95989.03
2023-02-19T22:16:03.808Z,95991.56
2023-02-19T22:18:30.519Z,95984.25
2023-02-19T22:20:57.579Z,95989.38
2023-02-19T22:23:24.413Z,95992.59
2023-02-19T22:25:51.081Z,95989.09
2023-02-19T22:28:17.878Z,95998.56
2023-02-19T22:30:44.687Z,95998.84
2023-02-19T22:33:11.351Z,96001.59
2023-02-19T22:35:38.149Z,96003.47
2023-02-19T22:38:04.945Z,96002.13
2023-02-19T22:40:31.591Z,95995.88
2023-02-19T22:42:58.268Z,95997.13
2023-02-19T22:45:25.557Z,95993.72
2023-02-19T22:47:55.706Z,95998.47
2023-02-19T22:50:23.267Z,95993.53
2023-02-19T22:52:50.180Z,95989.19
2023-02-19T22:55:17.628Z,96001.75
2023-02-19T22:57:44.283Z,95988.91
2023-02-19T23:00:21.462Z,95996.00
2023-02-19T23:02:48.909Z,95994.56
2023-02-19T23:05:16.555Z,95998.25
2023-02-19T23:07:46.213Z,95997.16
2023-02-19T23:10:13.593Z,96002.34
2023-02-19T23:12:41.231Z,96007.59
2023-02-19T23:15:09.208Z,96005.75
2023-02-19T23:17:36.056Z,96013.44
2023-02-19T23:20:03.374Z,96016.53
2023-02-19T23:22:30.086Z,96017.25
2023-02-19T23:24:57.325Z,96018.78
2023-02-19T23:27:24.363Z,96024.84
2023-02-19T23:29:50.919Z,96016.75
2023-02-19T23:32:20.884Z,96016.72
2023-02-19T23:34:48.398Z,96015.09
2023-02-19T23:37:15.542Z,96024.75
2023-02-19T23:39:42.329Z,96028.72
2023-02-19T23:42:15.231Z,96025.16
2023-02-19T23:44:42.042Z,96029.16
2023-02-19T23:47:08.696Z,96026.38
2023-02-19T23:49:35.215Z,96022.47
2023-02-19T23:52:02.114Z,96028.75
2023-02-19T23:54:28.820Z,96012.31
2023-02-19T23:56:56.206Z,96017.03
2023-02-19T23:59:22.931Z,96020.31
